sensor_id;sensor_type;location;lat;lon;timestamp;pressure;altitude;pressure_sealevel;temperature
21336;BMP180;69435;52.670;13.544;2023-08-17T00:00:13;101434.00;;;24.70
21336;BMP180;69435;52.670;13.544;2023-08-17T00:02:42;101437.00;;;24.70
21336;BMP180;69435;52.670;13.544;2023-08-17T00:05:08;101451.00;;;24.70
21336;BMP180;69435;52.670;13.544;2023-08-17T00:07:35;101454.00;;;24.60
21336;BMP180;69435;52.670;13.544;2023-08-17T00:10:01;101457.00;;;24.60
21336;BMP180;69435;52.670;13.544;2023-08-17T00:12:27;101451.00;;;24.60
21336;BMP180;69435;52.670;13.544;2023-08-17T00:14:53;101438.00;;;24.60
21336;BMP180;69435;52.670;13.544;2023-08-17T00:17:19;101443.00;;;24.50
21336;BMP180;69435;52.670;13.544;2023-08-17T00:19:46;101439.00;;;24.50
21336;BMP180;69435;52.670;13.544;2023-08-17T00:22:11;101423.00;;;24.50
21336;BMP180;69435;52.670;13.544;2023-08-17T00:24:37;101437.00;;;24.50
21336;BMP180;69435;52.670;13.544;2023-08-17T00:27:04;101411.00;;;24.40
21336;BMP180;69435;52.670;13.544;2023-08-17T00:29:30;101419.00;;;24.40
21336;BMP180;69435;52.670;13.544;2023-08-17T00:31:55;101414.00;;;24.40
21336;BMP180;69435;52.670;13.544;2023-08-17T00:34:21;101399.00;;;24.40
21336;BMP180;69435;52.670;13.544;2023-08-17T00:36:47;101405.00;;;24.30
21336;BMP180;69435;52.670;13.544;2023-08-17T00:39:13;101395.00;;;24.30
21336;BMP180;69435;52.670;13.544;2023-08-17T00:41:40;101376.00;;;24.30
21336;BMP180;69435;52.670;13.544;2023-08-17T00:44:06;101395.00;;;24.20
21336;BMP180;69435;52.670;13.544;2023-08-17T00:46:33;101386.00;;;24.20
21336;BMP180;69435;52.670;13.544;2023-08-17T00:48:59;101400.00;;;24.10
21336;BMP180;69435;52.670;13.544;2023-08-17T00:51:26;101391.00;;;24.10
21336;BMP180;69435;52.670;13.544;2023-08-17T00:53:56;101399.00;;;24.10
21336;BMP180;69435;52.670;13.544;2023-08-17T00:56:23;101393.00;;;24.00
21336;BMP180;69435;52.670;13.544;2023-08-17T00:58:50;101394.00;;;24.00
21336;BMP180;69435;52.670;13.544;2023-08-17T01:01:16;101405.00;;;24.00
21336;BMP180;69435;52.670;13.544;2023-08-17T01:03:42;101397.00;;;23.90
21336;BMP180;69435;52.670;13.544;2023-08-17T01:06:09;101412.00;;;23.90
21336;BMP180;69435;52.670;13.544;2023-08-17T01:08:37;101409.00;;;23.90
21336;BMP180;69435;52.670;13.544;2023-08-17T01:16:47;101412.00;;;23.90
21336;BMP180;69435;52.670;13.544;2023-08-17T01:19:27;101405.00;;;23.90
21336;BMP180;69435;52.670;13.544;2023-08-17T01:22:00;101413.00;;;23.80
21336;BMP180;69435;52.670;13.544;2023-08-17T01:24:28;101397.00;;;23.80
21336;BMP180;69435;52.670;13.544;2023-08-17T01:26:54;101407.00;;;23.80
21336;BMP180;69435;52.670;13.544;2023-08-17T01:29:20;101420.00;;;23.80
21336;BMP180;69435;52.670;13.544;2023-08-17T01:32:03;101417.00;;;23.90
21336;BMP180;69435;52.670;13.544;2023-08-17T01:34:44;101401.00;;;23.80
21336;BMP180;69435;52.670;13.544;2023-08-17T01:37:18;101414.00;;;23.80
21336;BMP180;69435;52.670;13.544;2023-08-17T01:39:51;101394.00;;;23.80
21336;BMP180;69435;52.670;13.544;2023-08-17T01:42:18;101390.00;;;23.70
21336;BMP180;69435;52.670;13.544;2023-08-17T01:44:45;101397.00;;;23.70
21336;BMP180;69435;52.670;13.544;2023-08-17T01:47:11;101401.00;;;23.70
21336;BMP180;69435;52.670;13.544;2023-08-17T01:49:37;101381.00;;;23.70
21336;BMP180;69435;52.670;13.544;2023-08-17T01:52:03;101412.00;;;23.70
21336;BMP180;69435;52.670;13.544;2023-08-17T01:54:28;101401.00;;;23.70
21336;BMP180;69435;52.670;13.544;2023-08-17T01:56:54;101394.00;;;23.70
21336;BMP180;69435;52.670;13.544;2023-08-17T01:59:20;101391.00;;;23.60
21336;BMP180;69435;52.670;13.544;2023-08-17T02:01:45;101398.00;;;23.60
21336;BMP180;69435;52.670;13.544;2023-08-17T02:04:11;101389.00;;;23.60
21336;BMP180;69435;52.670;13.544;2023-08-17T02:06:37;101419.00;;;23.60
21336;BMP180;69435;52.670;13.544;2023-08-17T02:09:03;101417.00;;;23.50
21336;BMP180;69435;52.670;13.544;2023-08-17T02:11:28;101427.00;;;23.50
21336;BMP180;69435;52.670;13.544;2023-08-17T02:13:54;101409.00;;;23.50
21336;BMP180;69435;52.670;13.544;2023-08-17T02:16:20;101428.00;;;23.40
21336;BMP180;69435;52.670;13.544;2023-08-17T02:18:45;101422.00;;;23.40
21336;BMP180;69435;52.670;13.544;2023-08-17T02:21:11;101424.00;;;23.40
21336;BMP180;69435;52.670;13.544;2023-08-17T02:23:37;101420.00;;;23.40
21336;BMP180;69435;52.670;13.544;2023-08-17T02:26:03;101418.00;;;23.40
21336;BMP180;69435;52.670;13.544;2023-08-17T02:28:28;101411.00;;;23.40
21336;BMP180;69435;52.670;13.544;2023-08-17T02:30:59;101410.00;;;23.50
21336;BMP180;69435;52.670;13.544;2023-08-17T02:33:24;101397.00;;;23.40
21336;BMP180;69435;52.670;13.544;2023-08-17T02:35:51;101400.00;;;23.40
21336;BMP180;69435;52.670;13.544;2023-08-17T02:38:18;101411.00;;;23.40
21336;BMP180;69435;52.670;13.544;2023-08-17T02:40:44;101393.00;;;23.40
21336;BMP180;69435;52.670;13.544;2023-08-17T02:43:09;101393.00;;;23.30
21336;BMP180;69435;52.670;13.544;2023-08-17T02:45:35;101416.00;;;23.30
21336;BMP180;69435;52.670;13.544;2023-08-17T02:48:04;101402.00;;;23.30
21336;BMP180;69435;52.670;13.544;2023-08-17T02:50:30;101384.00;;;23.30
21336;BMP180;69435;52.670;13.544;2023-08-17T02:52:56;101386.00;;;23.30
21336;BMP180;69435;52.670;13.544;2023-08-17T02:55:22;101392.00;;;23.30
21336;BMP180;69435;52.670;13.544;2023-08-17T02:57:48;101391.00;;;23.30
21336;BMP180;69435;52.670;13.544;2023-08-17T03:00:14;101388.00;;;23.30
21336;BMP180;69435;52.670;13.544;2023-08-17T03:02:40;101386.00;;;23.20
21336;BMP180;69435;52.670;13.544;2023-08-17T03:05:06;101396.00;;;23.20
21336;BMP180;69435;52.670;13.544;2023-08-17T03:07:32;101392.00;;;23.20
21336;BMP180;69435;52.670;13.544;2023-08-17T03:09:57;101384.00;;;23.20
21336;BMP180;69435;52.670;13.544;2023-08-17T03:12:23;101390.00;;;23.10
21336;BMP180;69435;52.670;13.544;2023-08-17T03:14:49;101388.00;;;23.10
21336;BMP180;69435;52.670;13.544;2023-08-17T03:17:14;101380.00;;;23.10
21336;BMP180;69435;52.670;13.544;2023-08-17T03:19:40;101384.00;;;23.10
21336;BMP180;69435;52.670;13.544;2023-08-17T03:22:06;101377.00;;;23.00
21336;BMP180;69435;52.670;13.544;2023-08-17T03:24:32;101381.00;;;23.00
21336;BMP180;69435;52.670;13.544;2023-08-17T03:26:57;101379.00;;;23.00
21336;BMP180;69435;52.670;13.544;2023-08-17T03:29:23;101377.00;;;23.00
21336;BMP180;69435;52.670;13.544;2023-08-17T03:31:49;101367.00;;;22.90
21336;BMP180;69435;52.670;13.544;2023-08-17T03:34:15;101368.00;;;22.90
21336;BMP180;69435;52.670;13.544;2023-08-17T03:36:41;101376.00;;;22.90
21336;BMP180;69435;52.670;13.544;2023-08-17T03:39:07;101385.00;;;22.90
21336;BMP180;69435;52.670;13.544;2023-08-17T03:41:32;101384.00;;;22.90
21336;BMP180;69435;52.670;13.544;2023-08-17T03:43:58;101385.00;;;22.90
21336;BMP180;69435;52.670;13.544;2023-08-17T03:46:24;101386.00;;;22.90
21336;BMP180;69435;52.670;13.544;2023-08-17T03:48:49;101371.00;;;22.90
21336;BMP180;69435;52.670;13.544;2023-08-17T03:51:15;101378.00;;;22.90
21336;BMP180;69435;52.670;13.544;2023-08-17T03:53:41;101385.00;;;22.90
21336;BMP180;69435;52.670;13.544;2023-08-17T03:56:07;101369.00;;;22.90
21336;BMP180;69435;52.670;13.544;2023-08-17T03:58:32;101378.00;;;22.90
21336;BMP180;69435;52.670;13.544;2023-08-17T04:01:00;101377.00;;;22.90
21336;BMP180;69435;52.670;13.544;2023-08-17T04:03:26;101377.00;;;22.90
21336;BMP180;69435;52.670;13.544;2023-08-17T04:05:51;101372.00;;;22.90
21336;BMP180;69435;52.670;13.544;2023-08-17T04:08:17;101365.00;;;22.90
21336;BMP180;69435;52.670;13.544;2023-08-17T04:10:43;101368.00;;;22.90
21336;BMP180;69435;52.670;13.544;2023-08-17T04:13:08;101375.00;;;22.80
21336;BMP180;69435;52.670;13.544;2023-08-17T04:15:34;101363.00;;;22.90
21336;BMP180;69435;52.670;13.544;2023-08-17T04:18:00;101370.00;;;22.90
21336;BMP180;69435;52.670;13.544;2023-08-17T04:20:26;101373.00;;;22.90
21336;BMP180;69435;52.670;13.544;2023-08-17T04:22:52;101338.00;;;22.90
21336;BMP180;69435;52.670;13.544;2023-08-17T04:25:18;101351.00;;;23.00
21336;BMP180;69435;52.670;13.544;2023-08-17T04:27:44;101358.00;;;23.00
21336;BMP180;69435;52.670;13.544;2023-08-17T04:30:11;101356.00;;;23.00
21336;BMP180;69435;52.670;13.544;2023-08-17T04:32:36;101346.00;;;23.00
21336;BMP180;69435;52.670;13.544;2023-08-17T04:35:02;101350.00;;;23.10
21336;BMP180;69435;52.670;13.544;2023-08-17T04:37:28;101346.00;;;23.10
21336;BMP180;69435;52.670;13.544;2023-08-17T04:39:54;101357.00;;;23.10
21336;BMP180;69435;52.670;13.544;2023-08-17T04:42:20;101346.00;;;23.20
21336;BMP180;69435;52.670;13.544;2023-08-17T04:44:46;101347.00;;;23.20
21336;BMP180;69435;52.670;13.544;2023-08-17T04:47:11;101343.00;;;23.30
21336;BMP180;69435;52.670;13.544;2023-08-17T04:49:37;101349.00;;;23.30
21336;BMP180;69435;52.670;13.544;2023-08-17T04:52:03;101341.00;;;23.30
21336;BMP180;69435;52.670;13.544;2023-08-17T04:54:29;101349.00;;;23.40
21336;BMP180;69435;52.670;13.544;2023-08-17T04:56:55;101357.00;;;23.40
21336;BMP180;69435;52.670;13.544;2023-08-17T04:59:21;101364.00;;;23.50
21336;BMP180;69435;52.670;13.544;2023-08-17T05:01:46;101352.00;;;23.50
21336;BMP180;69435;52.670;13.544;2023-08-17T05:04:12;101350.00;;;23.60
21336;BMP180;69435;52.670;13.544;2023-08-17T05:06:38;101337.00;;;23.70
21336;BMP180;69435;52.670;13.544;2023-08-17T05:09:04;101347.00;;;23.70
21336;BMP180;69435;52.670;13.544;2023-08-17T05:11:31;101347.00;;;23.80
21336;BMP180;69435;52.670;13.544;2023-08-17T05:13:57;101347.00;;;23.90
21336;BMP180;69435;52.670;13.544;2023-08-17T05:16:23;101346.00;;;23.90
21336;BMP180;69435;52.670;13.544;2023-08-17T05:18:48;101357.00;;;24.00
21336;BMP180;69435;52.670;13.544;2023-08-17T05:21:14;101346.00;;;24.00
21336;BMP180;69435;52.670;13.544;2023-08-17T05:23:40;101339.00;;;24.10
21336;BMP180;69435;52.670;13.544;2023-08-17T05:26:05;101313.00;;;24.10
21336;BMP180;69435;52.670;13.544;2023-08-17T05:28:31;101350.00;;;24.20
21336;BMP180;69435;52.670;13.544;2023-08-17T05:31:06;101360.00;;;24.20
21336;BMP180;69435;52.670;13.544;2023-08-17T05:33:32;101336.00;;;24.20
21336;BMP180;69435;52.670;13.544;2023-08-17T05:35:58;101364.00;;;24.30
21336;BMP180;69435;52.670;13.544;2023-08-17T05:38:23;101359.00;;;24.40
21336;BMP180;69435;52.670;13.544;2023-08-17T05:40:55;101359.00;;;24.50
21336;BMP180;69435;52.670;13.544;2023-08-17T05:43:22;101366.00;;;24.60
21336;BMP180;69435;52.670;13.544;2023-08-17T05:45:48;101373.00;;;24.70
21336;BMP180;69435;52.670;13.544;2023-08-17T05:48:14;101355.00;;;24.80
21336;BMP180;69435;52.670;13.544;2023-08-17T05:50:43;101368.00;;;25.00
21336;BMP180;69435;52.670;13.544;2023-08-17T05:53:09;101363.00;;;25.10
21336;BMP180;69435;52.670;13.544;2023-08-17T05:55:34;101358.00;;;25.30
21336;BMP180;69435;52.670;13.544;2023-08-17T05:58:01;101365.00;;;25.40
21336;BMP180;69435;52.670;13.544;2023-08-17T06:00:27;101341.00;;;25.50
21336;BMP180;69435;52.670;13.544;2023-08-17T06:02:52;101341.00;;;25.60
21336;BMP180;69435;52.670;13.544;2023-08-17T06:05:23;101347.00;;;25.80
21336;BMP180;69435;52.670;13.544;2023-08-17T06:07:51;101366.00;;;25.90
21336;BMP180;69435;52.670;13.544;2023-08-17T06:10:17;101369.00;;;26.00
21336;BMP180;69435;52.670;13.544;2023-08-17T06:12:43;101375.00;;;26.00
21336;BMP180;69435;52.670;13.544;2023-08-17T06:15:09;101366.00;;;26.10
21336;BMP180;69435;52.670;13.544;2023-08-17T06:17:34;101352.00;;;26.20
21336;BMP180;69435;52.670;13.544;2023-08-17T06:20:00;101368.00;;;26.20
21336;BMP180;69435;52.670;13.544;2023-08-17T06:22:26;101379.00;;;26.40
21336;BMP180;69435;52.670;13.544;2023-08-17T06:24:52;101389.00;;;26.50
21336;BMP180;69435;52.670;13.544;2023-08-17T06:27:18;101401.00;;;26.60
21336;BMP180;69435;52.670;13.544;2023-08-17T06:29:44;101432.00;;;26.70
21336;BMP180;69435;52.670;13.544;2023-08-17T06:32:10;101431.00;;;26.90
21336;BMP180;69435;52.670;13.544;2023-08-17T06:34:36;101439.00;;;27.00
21336;BMP180;69435;52.670;13.544;2023-08-17T06:37:03;101447.00;;;27.10
21336;BMP180;69435;52.670;13.544;2023-08-17T06:39:29;101460.00;;;27.20
21336;BMP180;69435;52.670;13.544;2023-08-17T06:41:55;101446.00;;;27.30
21336;BMP180;69435;52.670;13.544;2023-08-17T06:44:21;101437.00;;;27.40
21336;BMP180;69435;52.670;13.544;2023-08-17T06:46:47;101423.00;;;27.40
21336;BMP180;69435;52.670;13.544;2023-08-17T06:49:12;101424.00;;;27.50
21336;BMP180;69435;52.670;13.544;2023-08-17T06:51:39;101425.00;;;27.70
21336;BMP180;69435;52.670;13.544;2023-08-17T06:54:07;101411.00;;;27.80
21336;BMP180;69435;52.670;13.544;2023-08-17T06:56:33;101414.00;;;28.00
21336;BMP180;69435;52.670;13.544;2023-08-17T06:58:59;101394.00;;;28.20
21336;BMP180;69435;52.670;13.544;2023-08-17T07:01:25;101415.00;;;28.40
21336;BMP180;69435;52.670;13.544;2023-08-17T07:03:50;101411.00;;;28.70
21336;BMP180;69435;52.670;13.544;2023-08-17T07:06:16;101403.00;;;28.90
21336;BMP180;69435;52.670;13.544;2023-08-17T07:08:42;101410.00;;;29.10
21336;BMP180;69435;52.670;13.544;2023-08-17T07:11:08;101409.00;;;29.40
21336;BMP180;69435;52.670;13.544;2023-08-17T07:13:34;101408.00;;;29.60
21336;BMP180;69435;52.670;13.544;2023-08-17T07:16:00;101411.00;;;29.90
21336;BMP180;69435;52.670;13.544;2023-08-17T07:18:25;101410.00;;;30.00
21336;BMP180;69435;52.670;13.544;2023-08-17T07:20:51;101409.00;;;30.20
21336;BMP180;69435;52.670;13.544;2023-08-17T07:23:17;101400.00;;;30.30
21336;BMP180;69435;52.670;13.544;2023-08-17T07:25:42;101424.00;;;30.40
21336;BMP180;69435;52.670;13.544;2023-08-17T07:28:09;101420.00;;;30.40
21336;BMP180;69435;52.670;13.544;2023-08-17T07:30:35;101412.00;;;30.40
21336;BMP180;69435;52.670;13.544;2023-08-17T07:33:01;101430.00;;;30.40
21336;BMP180;69435;52.670;13.544;2023-08-17T07:35:27;101422.00;;;30.40
21336;BMP180;69435;52.670;13.544;2023-08-17T07:37:52;101426.00;;;30.50
21336;BMP180;69435;52.670;13.544;2023-08-17T07:40:18;101423.00;;;30.70
21336;BMP180;69435;52.670;13.544;2023-08-17T07:42:45;101413.00;;;31.10
21336;BMP180;69435;52.670;13.544;2023-08-17T07:45:12;101416.00;;;31.50
21336;BMP180;69435;52.670;13.544;2023-08-17T07:47:38;101413.00;;;31.90
21336;BMP180;69435;52.670;13.544;2023-08-17T07:50:05;101420.00;;;32.30
21336;BMP180;69435;52.670;13.544;2023-08-17T07:52:31;101412.00;;;32.70
21336;BMP180;69435;52.670;13.544;2023-08-17T07:54:57;101407.00;;;33.10
21336;BMP180;69435;52.670;13.544;2023-08-17T07:57:22;101413.00;;;33.30
21336;BMP180;69435;52.670;13.544;2023-08-17T07:59:48;101418.00;;;33.30
21336;BMP180;69435;52.670;13.544;2023-08-17T08:02:14;101402.00;;;33.20
21336;BMP180;69435;52.670;13.544;2023-08-17T08:04:40;101409.00;;;33.20
21336;BMP180;69435;52.670;13.544;2023-08-17T08:07:05;101412.00;;;33.20
21336;BMP180;69435;52.670;13.544;2023-08-17T08:09:31;101410.00;;;33.10
21336;BMP180;69435;52.670;13.544;2023-08-17T08:11:57;101400.00;;;33.10
21336;BMP180;69435;52.670;13.544;2023-08-17T08:14:23;101416.00;;;33.10
21336;BMP180;69435;52.670;13.544;2023-08-17T08:16:48;101404.00;;;33.00
21336;BMP180;69435;52.670;13.544;2023-08-17T08:19:14;101412.00;;;32.80
21336;BMP180;69435;52.670;13.544;2023-08-17T08:21:40;101413.00;;;32.70
21336;BMP180;69435;52.670;13.544;2023-08-17T08:24:06;101418.00;;;32.60
21336;BMP180;69435;52.670;13.544;2023-08-17T08:26:32;101408.00;;;32.60
21336;BMP180;69435;52.670;13.544;2023-08-17T08:28:57;101405.00;;;32.50
21336;BMP180;69435;52.670;13.544;2023-08-17T08:31:24;101413.00;;;32.50
21336;BMP180;69435;52.670;13.544;2023-08-17T08:33:49;101395.00;;;32.40
21336;BMP180;69435;52.670;13.544;2023-08-17T08:36:17;101410.00;;;32.30
21336;BMP180;69435;52.670;13.544;2023-08-17T08:38:42;101399.00;;;32.20
21336;BMP180;69435;52.670;13.544;2023-08-17T08:41:09;101396.00;;;32.40
21336;BMP180;69435;52.670;13.544;2023-08-17T08:43:35;101396.00;;;32.60
21336;BMP180;69435;52.670;13.544;2023-08-17T08:46:01;101387.00;;;32.90
21336;BMP180;69435;52.670;13.544;2023-08-17T08:48:29;101389.00;;;33.20
21336;BMP180;69435;52.670;13.544;2023-08-17T08:50:55;101370.00;;;33.60
21336;BMP180;69435;52.670;13.544;2023-08-17T08:53:38;101364.00;;;34.30
21336;BMP180;69435;52.670;13.544;2023-08-17T08:56:10;101366.00;;;35.00
21336;BMP180;69435;52.670;13.544;2023-08-17T08:58:40;101364.00;;;35.60
21336;BMP180;69435;52.670;13.544;2023-08-17T09:01:07;101376.00;;;35.90
21336;BMP180;69435;52.670;13.544;2023-08-17T09:03:34;101371.00;;;36.00
21336;BMP180;69435;52.670;13.544;2023-08-17T09:06:00;101358.00;;;35.90
21336;BMP180;69435;52.670;13.544;2023-08-17T09:08:29;101366.00;;;35.70
21336;BMP180;69435;52.670;13.544;2023-08-17T09:10:55;101371.00;;;35.60
21336;BMP180;69435;52.670;13.544;2023-08-17T09:13:21;101367.00;;;35.50
21336;BMP180;69435;52.670;13.544;2023-08-17T09:15:47;101361.00;;;35.50
21336;BMP180;69435;52.670;13.544;2023-08-17T09:18:13;101362.00;;;35.30
21336;BMP180;69435;52.670;13.544;2023-08-17T09:20:46;101355.00;;;35.20
21336;BMP180;69435;52.670;13.544;2023-08-17T09:23:18;101346.00;;;35.00
21336;BMP180;69435;52.670;13.544;2023-08-17T09:25:51;101329.00;;;34.70
21336;BMP180;69435;52.670;13.544;2023-08-17T09:28:19;101342.00;;;34.50
21336;BMP180;69435;52.670;13.544;2023-08-17T09:31:00;101348.00;;;34.30
21336;BMP180;69435;52.670;13.544;2023-08-17T09:33:30;101327.00;;;34.10
21336;BMP180;69435;52.670;13.544;2023-08-17T09:35:58;101338.00;;;33.90
21336;BMP180;69435;52.670;13.544;2023-08-17T09:38:25;101336.00;;;33.50
21336;BMP180;69435;52.670;13.544;2023-08-17T09:40:51;101333.00;;;33.20
21336;BMP180;69435;52.670;13.544;2023-08-17T09:43:18;101325.00;;;32.80
21336;BMP180;69435;52.670;13.544;2023-08-17T09:45:47;101347.00;;;32.40
21336;BMP180;69435;52.670;13.544;2023-08-17T09:48:17;101346.00;;;32.10
21336;BMP180;69435;52.670;13.544;2023-08-17T09:50:48;101348.00;;;31.70
21336;BMP180;69435;52.670;13.544;2023-08-17T09:53:18;101346.00;;;31.40
21336;BMP180;69435;52.670;13.544;2023-08-17T09:55:45;101345.00;;;31.00
21336;BMP180;69435;52.670;13.544;2023-08-17T09:58:12;101351.00;;;30.60
21336;BMP180;69435;52.670;13.544;2023-08-17T10:00:49;101355.00;;;30.40
21336;BMP180;69435;52.670;13.544;2023-08-17T10:03:17;101340.00;;;29.90
21336;BMP180;69435;52.670;13.544;2023-08-17T10:05:47;101342.00;;;29.50
21336;BMP180;69435;52.670;13.544;2023-08-17T10:08:19;101340.00;;;29.30
21336;BMP180;69435;52.670;13.544;2023-08-17T10:10:46;101341.00;;;29.10
21336;BMP180;69435;52.670;13.544;2023-08-17T10:13:22;101343.00;;;29.10
21336;BMP180;69435;52.670;13.544;2023-08-17T10:16:35;101340.00;;;29.10
21336;BMP180;69435;52.670;13.544;2023-08-17T10:21:50;101339.00;;;29.20
21336;BMP180;69435;52.670;13.544;2023-08-17T10:24:19;101338.00;;;29.30
21336;BMP180;69435;52.670;13.544;2023-08-17T10:26:45;101340.00;;;29.40
21336;BMP180;69435;52.670;13.544;2023-08-17T10:29:12;101338.00;;;29.60
21336;BMP180;69435;52.670;13.544;2023-08-17T10:31:38;101327.00;;;29.70
21336;BMP180;69435;52.670;13.544;2023-08-17T10:34:05;101312.00;;;29.90
21336;BMP180;69435;52.670;13.544;2023-08-17T10:36:32;101332.00;;;30.00
21336;BMP180;69435;52.670;13.544;2023-08-17T10:39:27;101321.00;;;30.30
21336;BMP180;69435;52.670;13.544;2023-08-17T10:41:53;101325.00;;;30.30
21336;BMP180;69435;52.670;13.544;2023-08-17T10:44:48;101326.00;;;30.50
21336;BMP180;69435;52.670;13.544;2023-08-17T10:47:29;101323.00;;;30.50
21336;BMP180;69435;52.670;13.544;2023-08-17T10:50:05;101319.00;;;30.50
21336;BMP180;69435;52.670;13.544;2023-08-17T10:52:35;101310.00;;;30.30
21336;BMP180;69435;52.670;13.544;2023-08-17T10:55:06;101323.00;;;30.30
21336;BMP180;69435;52.670;13.544;2023-08-17T10:57:36;101328.00;;;30.20
21336;BMP180;69435;52.670;13.544;2023-08-17T11:00:06;101320.00;;;30.10
21336;BMP180;69435;52.670;13.544;2023-08-17T11:02:39;101314.00;;;29.90
21336;BMP180;69435;52.670;13.544;2023-08-17T11:05:06;101314.00;;;29.80
21336;BMP180;69435;52.670;13.544;2023-08-17T11:07:44;101313.00;;;29.80
21336;BMP180;69435;52.670;13.544;2023-08-17T11:12:45;101307.00;;;29.80
21336;BMP180;69435;52.670;13.544;2023-08-17T11:15:11;101312.00;;;30.10
21336;BMP180;69435;52.670;13.544;2023-08-17T11:17:36;101304.00;;;30.40
21336;BMP180;69435;52.670;13.544;2023-08-17T11:20:04;101309.00;;;31.00
21336;BMP180;69435;52.670;13.544;2023-08-17T11:22:30;101298.00;;;31.70
21336;BMP180;69435;52.670;13.544;2023-08-17T11:24:57;101303.00;;;32.30
21336;BMP180;69435;52.670;13.544;2023-08-17T11:27:24;101302.00;;;33.00
21336;BMP180;69435;52.670;13.544;2023-08-17T11:29:49;101304.00;;;33.60
21336;BMP180;69435;52.670;13.544;2023-08-17T11:32:18;101297.00;;;34.20
21336;BMP180;69435;52.670;13.544;2023-08-17T11:34:44;101287.00;;;34.60
21336;BMP180;69435;52.670;13.544;2023-08-17T11:37:13;101307.00;;;35.10
21336;BMP180;69435;52.670;13.544;2023-08-17T11:39:39;101299.00;;;35.40
21336;BMP180;69435;52.670;13.544;2023-08-17T11:42:05;101283.00;;;35.60
21336;BMP180;69435;52.670;13.544;2023-08-17T11:44:31;101294.00;;;35.80
21336;BMP180;69435;52.670;13.544;2023-08-17T11:46:57;101305.00;;;35.80
21336;BMP180;69435;52.670;13.544;2023-08-17T11:49:23;101289.00;;;35.70
21336;BMP180;69435;52.670;13.544;2023-08-17T11:51:51;101305.00;;;35.70
21336;BMP180;69435;52.670;13.544;2023-08-17T11:54:17;101302.00;;;35.70
21336;BMP180;69435;52.670;13.544;2023-08-17T11:56:42;101293.00;;;35.60
21336;BMP180;69435;52.670;13.544;2023-08-17T11:59:10;101313.00;;;35.50
21336;BMP180;69435;52.670;13.544;2023-08-17T12:01:40;101311.00;;;35.40
21336;BMP180;69435;52.670;13.544;2023-08-17T12:04:06;101304.00;;;35.20
21336;BMP180;69435;52.670;13.544;2023-08-17T12:06:32;101309.00;;;35.00
21336;BMP180;69435;52.670;13.544;2023-08-17T12:08:58;101310.00;;;34.80
21336;BMP180;69435;52.670;13.544;2023-08-17T12:11:24;101311.00;;;34.60
21336;BMP180;69435;52.670;13.544;2023-08-17T12:13:53;101307.00;;;34.50
21336;BMP180;69435;52.670;13.544;2023-08-17T12:16:21;101300.00;;;34.30
21336;BMP180;69435;52.670;13.544;2023-08-17T12:18:52;101306.00;;;34.20
21336;BMP180;69435;52.670;13.544;2023-08-17T12:21:22;101289.00;;;34.00
21336;BMP180;69435;52.670;13.544;2023-08-17T12:23:48;101299.00;;;33.90
21336;BMP180;69435;52.670;13.544;2023-08-17T12:26:21;101297.00;;;33.90
21336;BMP180;69435;52.670;13.544;2023-08-17T12:28:47;101295.00;;;33.80
21336;BMP180;69435;52.670;13.544;2023-08-17T12:31:14;101281.00;;;33.90
21336;BMP180;69435;52.670;13.544;2023-08-17T12:33:46;101293.00;;;33.90
21336;BMP180;69435;52.670;13.544;2023-08-17T12:36:11;101282.00;;;33.80
21336;BMP180;69435;52.670;13.544;2023-08-17T12:38:37;101287.00;;;33.70
21336;BMP180;69435;52.670;13.544;2023-08-17T12:41:07;101288.00;;;33.50
21336;BMP180;69435;52.670;13.544;2023-08-17T12:43:33;101267.00;;;33.20
21336;BMP180;69435;52.670;13.544;2023-08-17T12:45:58;101283.00;;;33.10
21336;BMP180;69435;52.670;13.544;2023-08-17T12:48:24;101283.00;;;32.80
21336;BMP180;69435;52.670;13.544;2023-08-17T12:50:50;101274.00;;;32.70
21336;BMP180;69435;52.670;13.544;2023-08-17T12:53:15;101281.00;;;32.50
21336;BMP180;69435;52.670;13.544;2023-08-17T12:55:42;101276.00;;;32.40
21336;BMP180;69435;52.670;13.544;2023-08-17T12:58:08;101275.00;;;32.30
21336;BMP180;69435;52.670;13.544;2023-08-17T13:00:35;101268.00;;;32.30
21336;BMP180;69435;52.670;13.544;2023-08-17T13:03:01;101267.00;;;32.50
21336;BMP180;69435;52.670;13.544;2023-08-17T13:05:27;101264.00;;;32.70
21336;BMP180;69435;52.670;13.544;2023-08-17T13:07:53;101264.00;;;33.00
21336;BMP180;69435;52.670;13.544;2023-08-17T13:10:19;101259.00;;;33.20
21336;BMP180;69435;52.670;13.544;2023-08-17T13:12:44;101269.00;;;33.50
21336;BMP180;69435;52.670;13.544;2023-08-17T13:15:13;101266.00;;;33.70
21336;BMP180;69435;52.670;13.544;2023-08-17T13:17:38;101249.00;;;33.90
21336;BMP180;69435;52.670;13.544;2023-08-17T13:20:05;101252.00;;;34.00
21336;BMP180;69435;52.670;13.544;2023-08-17T13:22:32;101258.00;;;34.00
21336;BMP180;69435;52.670;13.544;2023-08-17T13:24:57;101260.00;;;34.10
21336;BMP180;69435;52.670;13.544;2023-08-17T13:27:23;101260.00;;;34.00
21336;BMP180;69435;52.670;13.544;2023-08-17T13:29:49;101259.00;;;34.00
21336;BMP180;69435;52.670;13.544;2023-08-17T13:32:15;101245.00;;;34.00
21336;BMP180;69435;52.670;13.544;2023-08-17T13:34:40;101251.00;;;33.90
21336;BMP180;69435;52.670;13.544;2023-08-17T13:37:06;101238.00;;;33.90
21336;BMP180;69435;52.670;13.544;2023-08-17T13:39:32;101247.00;;;33.90
21336;BMP180;69435;52.670;13.544;2023-08-17T13:41:58;101252.00;;;33.90
21336;BMP180;69435;52.670;13.544;2023-08-17T13:44:24;101241.00;;;33.90
21336;BMP180;69435;52.670;13.544;2023-08-17T13:46:49;101236.00;;;33.90
21336;BMP180;69435;52.670;13.544;2023-08-17T13:49:15;101245.00;;;34.00
21336;BMP180;69435;52.670;13.544;2023-08-17T13:51:41;101248.00;;;33.90
21336;BMP180;69435;52.670;13.544;2023-08-17T13:54:07;101242.00;;;33.90